sensor_id;sensor_type;location;lat;lon;timestamp;P1;durP1;ratioP1;P2;durP2;ratioP2
21046;SDS011;10682;50.874;3.656;2022-08-06T00:02:23;3.93;;;1.40;;
21046;SDS011;10682;50.874;3.656;2022-08-06T00:04:57;7.23;;;1.60;;
21046;SDS011;10682;50.874;3.656;2022-08-06T00:07:30;7.43;;;1.60;;
21046;SDS011;10682;50.874;3.656;2022-08-06T00:10:11;4.03;;;1.40;;
21046;SDS011;10682;50.874;3.656;2022-08-06T00:12:39;5.30;;;1.43;;
21046;SDS011;10682;50.874;3.656;2022-08-06T00:15:06;6.07;;;1.53;;
21046;SDS011;10682;50.874;3.656;2022-08-06T00:17:40;3.33;;;1.13;;
21046;SDS011;10682;50.874;3.656;2022-08-06T00:20:14;3.20;;;1.20;;
21046;SDS011;10682;50.874;3.656;2022-08-06T00:22:57;4.00;;;1.50;;
21046;SDS011;10682;50.874;3.656;2022-08-06T00:25:27;4.43;;;1.73;;
21046;SDS011;10682;50.874;3.656;2022-08-06T00:28:09;5.83;;;1.53;;
21046;SDS011;10682;50.874;3.656;2022-08-06T00:30:36;3.87;;;1.20;;
21046;SDS011;10682;50.874;3.656;2022-08-06T00:33:04;3.73;;;1.50;;
21046;SDS011;10682;50.874;3.656;2022-08-06T00:35:31;3.30;;;1.30;;
21046;SDS011;10682;50.874;3.656;2022-08-06T00:37:59;4.40;;;1.30;;
21046;SDS011;10682;50.874;3.656;2022-08-06T00:40:27;3.80;;;1.47;;
21046;SDS011;10682;50.874;3.656;2022-08-06T00:42:57;4.93;;;1.60;;
21046;SDS011;10682;50.874;3.656;2022-08-06T00:45:32;3.73;;;1.43;;
21046;SDS011;10682;50.874;3.656;2022-08-06T00:48:11;6.27;;;1.70;;
21046;SDS011;10682;50.874;3.656;2022-08-06T00:51:00;4.93;;;1.50;;
21046;SDS011;10682;50.874;3.656;2022-08-06T00:53:28;4.13;;;1.90;;
21046;SDS011;10682;50.874;3.656;2022-08-06T00:55:59;6.73;;;1.90;;
21046;SDS011;10682;50.874;3.656;2022-08-06T00:58:36;3.47;;;1.30;;
21046;SDS011;10682;50.874;3.656;2022-08-06T01:01:05;4.27;;;1.50;;
21046;SDS011;10682;50.874;3.656;2022-08-06T01:03:43;3.93;;;1.47;;
21046;SDS011;10682;50.874;3.656;2022-08-06T01:06:17;4.80;;;1.40;;
21046;SDS011;10682;50.874;3.656;2022-08-06T01:09:11;2.63;;;1.40;;
21046;SDS011;10682;50.874;3.656;2022-08-06T01:11:39;1.47;;;1.23;;
21046;SDS011;10682;50.874;3.656;2022-08-06T01:14:06;3.67;;;1.60;;
21046;SDS011;10682;50.874;3.656;2022-08-06T01:16:51;3.57;;;1.70;;
21046;SDS011;10682;50.874;3.656;2022-08-06T01:20:17;3.47;;;1.40;;
21046;SDS011;10682;50.874;3.656;2022-08-06T01:23:07;5.30;;;1.50;;
21046;SDS011;10682;50.874;3.656;2022-08-06T01:32:09;4.53;;;1.60;;
21046;SDS011;10682;50.874;3.656;2022-08-06T01:34:48;4.67;;;1.50;;
21046;SDS011;10682;50.874;3.656;2022-08-06T01:37:22;3.80;;;1.50;;
21046;SDS011;10682;50.874;3.656;2022-08-06T01:40:06;1.67;;;1.20;;
21046;SDS011;10682;50.874;3.656;2022-08-06T01:42:39;3.80;;;1.60;;
21046;SDS011;10682;50.874;3.656;2022-08-06T01:45:19;2.43;;;1.40;;
21046;SDS011;10682;50.874;3.656;2022-08-06T01:48:12;8.27;;;1.97;;
21046;SDS011;10682;50.874;3.656;2022-08-06T01:50:45;5.17;;;1.47;;
21046;SDS011;10682;50.874;3.656;2022-08-06T01:53:16;5.97;;;2.10;;
21046;SDS011;10682;50.874;3.656;2022-08-06T01:56:09;6.97;;;2.13;;
21046;SDS011;10682;50.874;3.656;2022-08-06T01:58:45;3.13;;;1.50;;
21046;SDS011;10682;50.874;3.656;2022-08-06T02:01:17;3.73;;;1.90;;
21046;SDS011;10682;50.874;3.656;2022-08-06T02:03:46;6.33;;;1.97;;
21046;SDS011;10682;50.874;3.656;2022-08-06T02:06:26;6.27;;;1.70;;
21046;SDS011;10682;50.874;3.656;2022-08-06T02:09:03;5.43;;;1.80;;
21046;SDS011;10682;50.874;3.656;2022-08-06T02:12:06;4.30;;;1.60;;
21046;SDS011;10682;50.874;3.656;2022-08-06T02:14:47;4.17;;;1.57;;
21046;SDS011;10682;50.874;3.656;2022-08-06T02:17:20;3.53;;;1.47;;
21046;SDS011;10682;50.874;3.656;2022-08-06T02:20:17;5.33;;;1.83;;
21046;SDS011;10682;50.874;3.656;2022-08-06T02:23:03;4.40;;;1.73;;
21046;SDS011;10682;50.874;3.656;2022-08-06T02:25:35;6.40;;;1.40;;
21046;SDS011;10682;50.874;3.656;2022-08-06T02:28:08;2.10;;;1.60;;
21046;SDS011;10682;50.874;3.656;2022-08-06T02:30:51;4.77;;;1.70;;
21046;SDS011;10682;50.874;3.656;2022-08-06T02:33:21;3.90;;;1.47;;
21046;SDS011;10682;50.874;3.656;2022-08-06T02:36:19;3.40;;;1.73;;
21046;SDS011;10682;50.874;3.656;2022-08-06T02:39:02;3.17;;;1.70;;
21046;SDS011;10682;50.874;3.656;2022-08-06T02:41:40;4.93;;;2.00;;
21046;SDS011;10682;50.874;3.656;2022-08-06T02:50:31;4.23;;;1.80;;
21046;SDS011;10682;50.874;3.656;2022-08-06T02:53:05;8.43;;;1.80;;
21046;SDS011;10682;50.874;3.656;2022-08-06T02:55:57;5.93;;;1.80;;
21046;SDS011;10682;50.874;3.656;2022-08-06T02:58:39;3.83;;;1.87;;
21046;SDS011;10682;50.874;3.656;2022-08-06T03:01:23;3.67;;;1.60;;
21046;SDS011;10682;50.874;3.656;2022-08-06T03:04:09;4.77;;;1.70;;
21046;SDS011;10682;50.874;3.656;2022-08-06T03:06:37;3.13;;;1.60;;
21046;SDS011;10682;50.874;3.656;2022-08-06T03:09:10;4.30;;;1.60;;
21046;SDS011;10682;50.874;3.656;2022-08-06T03:11:41;5.10;;;2.10;;
21046;SDS011;10682;50.874;3.656;2022-08-06T03:14:13;5.27;;;1.83;;
21046;SDS011;10682;50.874;3.656;2022-08-06T03:17:02;3.57;;;1.50;;
21046;SDS011;10682;50.874;3.656;2022-08-06T03:19:32;5.03;;;1.70;;
21046;SDS011;10682;50.874;3.656;2022-08-06T03:22:21;4.20;;;1.80;;
21046;SDS011;10682;50.874;3.656;2022-08-06T03:25:09;6.80;;;1.60;;
21046;SDS011;10682;50.874;3.656;2022-08-06T03:27:40;3.40;;;1.50;;
21046;SDS011;10682;50.874;3.656;2022-08-06T03:30:17;3.73;;;1.50;;
21046;SDS011;10682;50.874;3.656;2022-08-06T03:33:08;2.37;;;1.40;;
21046;SDS011;10682;50.874;3.656;2022-08-06T03:36:00;3.87;;;1.50;;
21046;SDS011;10682;50.874;3.656;2022-08-06T03:38:31;3.10;;;1.50;;
21046;SDS011;10682;50.874;3.656;2022-08-06T03:41:05;3.93;;;2.20;;
21046;SDS011;10682;50.874;3.656;2022-08-06T03:43:34;4.07;;;1.73;;
21046;SDS011;10682;50.874;3.656;2022-08-06T03:47:05;2.93;;;1.70;;
21046;SDS011;10682;50.874;3.656;2022-08-06T03:49:28;3.20;;;1.80;;
21046;SDS011;10682;50.874;3.656;2022-08-06T03:52:07;6.70;;;2.10;;
21046;SDS011;10682;50.874;3.656;2022-08-06T03:54:48;2.33;;;1.40;;
21046;SDS011;10682;50.874;3.656;2022-08-06T03:57:23;6.40;;;1.60;;
21046;SDS011;10682;50.874;3.656;2022-08-06T04:00:07;4.97;;;1.73;;
21046;SDS011;10682;50.874;3.656;2022-08-06T04:02:37;4.40;;;1.70;;
21046;SDS011;10682;50.874;3.656;2022-08-06T04:05:14;3.77;;;2.20;;
21046;SDS011;10682;50.874;3.656;2022-08-06T04:07:49;3.70;;;1.93;;
21046;SDS011;10682;50.874;3.656;2022-08-06T04:10:56;8.20;;;2.30;;
21046;SDS011;10682;50.874;3.656;2022-08-06T04:13:24;4.47;;;2.10;;
21046;SDS011;10682;50.874;3.656;2022-08-06T04:16:13;7.97;;;2.40;;
21046;SDS011;10682;50.874;3.656;2022-08-06T04:19:01;6.10;;;2.23;;
21046;SDS011;10682;50.874;3.656;2022-08-06T04:21:29;7.63;;;2.07;;
21046;SDS011;10682;50.874;3.656;2022-08-06T04:24:16;8.20;;;2.40;;
21046;SDS011;10682;50.874;3.656;2022-08-06T04:26:44;3.90;;;2.43;;
21046;SDS011;10682;50.874;3.656;2022-08-06T04:29:17;6.53;;;2.30;;
21046;SDS011;10682;50.874;3.656;2022-08-06T04:31:49;4.00;;;2.50;;
21046;SDS011;10682;50.874;3.656;2022-08-06T04:34:38;4.93;;;2.30;;
21046;SDS011;10682;50.874;3.656;2022-08-06T04:37:27;4.33;;;2.50;;
21046;SDS011;10682;50.874;3.656;2022-08-06T04:40:06;6.70;;;2.43;;
21046;SDS011;10682;50.874;3.656;2022-08-06T04:42:52;12.30;;;2.53;;
21046;SDS011;10682;50.874;3.656;2022-08-06T04:45:20;12.10;;;2.47;;
21046;SDS011;10682;50.874;3.656;2022-08-06T04:48:09;8.00;;;2.20;;
21046;SDS011;10682;50.874;3.656;2022-08-06T04:50:46;3.87;;;2.40;;
21046;SDS011;10682;50.874;3.656;2022-08-06T04:53:14;3.47;;;2.03;;
21046;SDS011;10682;50.874;3.656;2022-08-06T04:56:03;5.57;;;2.17;;
21046;SDS011;10682;50.874;3.656;2022-08-06T04:58:32;6.23;;;2.23;;
21046;SDS011;10682;50.874;3.656;2022-08-06T05:01:01;7.00;;;1.90;;
21046;SDS011;10682;50.874;3.656;2022-08-06T05:03:36;4.40;;;1.90;;
21046;SDS011;10682;50.874;3.656;2022-08-06T05:06:24;3.57;;;1.90;;
21046;SDS011;10682;50.874;3.656;2022-08-06T05:09:01;4.27;;;2.00;;
21046;SDS011;10682;50.874;3.656;2022-08-06T05:11:50;7.30;;;2.33;;
21046;SDS011;10682;50.874;3.656;2022-08-06T05:14:48;4.47;;;2.07;;
21046;SDS011;10682;50.874;3.656;2022-08-06T05:17:55;4.73;;;2.03;;
21046;SDS011;10682;50.874;3.656;2022-08-06T05:20:59;8.70;;;2.47;;
21046;SDS011;10682;50.874;3.656;2022-08-06T05:23:35;5.67;;;2.33;;
21046;SDS011;10682;50.874;3.656;2022-08-06T05:26:12;8.57;;;2.53;;
21046;SDS011;10682;50.874;3.656;2022-08-06T05:28:51;8.40;;;2.20;;
21046;SDS011;10682;50.874;3.656;2022-08-06T05:31:30;3.17;;;2.03;;
21046;SDS011;10682;50.874;3.656;2022-08-06T05:34:04;4.37;;;1.90;;
21046;SDS011;10682;50.874;3.656;2022-08-06T05:36:35;6.97;;;2.40;;
21046;SDS011;10682;50.874;3.656;2022-08-06T05:39:04;3.43;;;2.20;;
21046;SDS011;10682;50.874;3.656;2022-08-06T05:41:33;4.43;;;2.20;;
21046;SDS011;10682;50.874;3.656;2022-08-06T05:44:04;7.00;;;3.20;;
21046;SDS011;10682;50.874;3.656;2022-08-06T05:46:33;7.87;;;3.00;;
21046;SDS011;10682;50.874;3.656;2022-08-06T05:49:08;6.37;;;3.07;;
21046;SDS011;10682;50.874;3.656;2022-08-06T05:54:53;8.70;;;2.90;;
21046;SDS011;10682;50.874;3.656;2022-08-06T05:57:35;5.30;;;2.87;;
21046;SDS011;10682;50.874;3.656;2022-08-06T06:00:09;7.30;;;2.83;;
21046;SDS011;10682;50.874;3.656;2022-08-06T06:03:01;6.33;;;2.87;;
21046;SDS011;10682;50.874;3.656;2022-08-06T06:05:32;7.30;;;2.80;;
21046;SDS011;10682;50.874;3.656;2022-08-06T06:08:19;5.23;;;2.80;;
21046;SDS011;10682;50.874;3.656;2022-08-06T06:11:06;4.07;;;2.60;;
21046;SDS011;10682;50.874;3.656;2022-08-06T06:13:37;9.17;;;3.13;;
21046;SDS011;10682;50.874;3.656;2022-08-06T06:16:33;5.50;;;2.77;;
21046;SDS011;10682;50.874;3.656;2022-08-06T06:19:36;7.43;;;3.17;;
21046;SDS011;10682;50.874;3.656;2022-08-06T06:22:23;6.27;;;2.70;;
21046;SDS011;10682;50.874;3.656;2022-08-06T06:25:44;6.37;;;2.77;;
21046;SDS011;10682;50.874;3.656;2022-08-06T06:34:05;6.03;;;3.07;;
21046;SDS011;10682;50.874;3.656;2022-08-06T06:36:51;9.13;;;3.90;;
21046;SDS011;10682;50.874;3.656;2022-08-06T06:42:25;10.40;;;3.70;;
21046;SDS011;10682;50.874;3.656;2022-08-06T06:48:49;10.00;;;4.60;;
21046;SDS011;10682;50.874;3.656;2022-08-06T06:54:20;8.47;;;4.60;;
21046;SDS011;10682;50.874;3.656;2022-08-06T06:57:03;7.68;;;3.92;;
21046;SDS011;10682;50.874;3.656;2022-08-06T06:59:35;8.85;;;3.53;;
21046;SDS011;10682;50.874;3.656;2022-08-06T07:02:25;10.95;;;3.20;;
21046;SDS011;10682;50.874;3.656;2022-08-06T07:04:55;9.00;;;2.97;;
21046;SDS011;10682;50.874;3.656;2022-08-06T07:07:24;5.45;;;2.45;;
21046;SDS011;10682;50.874;3.656;2022-08-06T07:09:55;4.55;;;2.38;;
21046;SDS011;10682;50.874;3.656;2022-08-06T07:12:28;6.80;;;2.17;;
21046;SDS011;10682;50.874;3.656;2022-08-06T07:15:00;4.85;;;1.80;;
21046;SDS011;10682;50.874;3.656;2022-08-06T07:17:40;7.45;;;1.75;;
21046;SDS011;10682;50.874;3.656;2022-08-06T07:20:14;11.82;;;2.10;;
21046;SDS011;10682;50.874;3.656;2022-08-06T07:22:55;6.28;;;2.10;;
21046;SDS011;10682;50.874;3.656;2022-08-06T07:25:45;3.85;;;1.70;;
21046;SDS011;10682;50.874;3.656;2022-08-06T07:28:20;6.25;;;1.85;;
21046;SDS011;10682;50.874;3.656;2022-08-06T07:30:54;5.78;;;1.77;;
21046;SDS011;10682;50.874;3.656;2022-08-06T07:33:30;3.67;;;1.65;;
21046;SDS011;10682;50.874;3.656;2022-08-06T07:36:21;5.53;;;1.80;;
21046;SDS011;10682;50.874;3.656;2022-08-06T07:38:53;5.25;;;1.83;;
21046;SDS011;10682;50.874;3.656;2022-08-06T07:41:26;7.85;;;2.50;;
21046;SDS011;10682;50.874;3.656;2022-08-06T07:44:14;5.57;;;1.80;;
21046;SDS011;10682;50.874;3.656;2022-08-06T07:46:47;6.80;;;1.73;;
21046;SDS011;10682;50.874;3.656;2022-08-06T07:49:21;6.93;;;1.98;;
21046;SDS011;10682;50.874;3.656;2022-08-06T07:52:13;5.20;;;1.80;;
21046;SDS011;10682;50.874;3.656;2022-08-06T07:54:53;8.43;;;1.75;;
21046;SDS011;10682;50.874;3.656;2022-08-06T07:57:21;7.72;;;2.25;;
21046;SDS011;10682;50.874;3.656;2022-08-06T07:59:51;6.47;;;2.20;;
21046;SDS011;10682;50.874;3.656;2022-08-06T08:02:21;6.47;;;1.88;;
21046;SDS011;10682;50.874;3.656;2022-08-06T08:04:55;7.05;;;2.13;;
21046;SDS011;10682;50.874;3.656;2022-08-06T08:07:42;6.93;;;1.85;;
21046;SDS011;10682;50.874;3.656;2022-08-06T08:10:23;5.85;;;3.47;;
21046;SDS011;10682;50.874;3.656;2022-08-06T08:12:54;10.35;;;2.17;;
21046;SDS011;10682;50.874;3.656;2022-08-06T08:15:29;6.72;;;1.67;;
21046;SDS011;10682;50.874;3.656;2022-08-06T08:17:59;4.78;;;1.42;;
21046;SDS011;10682;50.874;3.656;2022-08-06T08:20:28;5.45;;;1.48;;
21046;SDS011;10682;50.874;3.656;2022-08-06T08:23:01;3.38;;;1.48;;
21046;SDS011;10682;50.874;3.656;2022-08-06T08:25:33;3.63;;;1.10;;
21046;SDS011;10682;50.874;3.656;2022-08-06T08:28:10;4.80;;;1.25;;
21046;SDS011;10682;50.874;3.656;2022-08-06T08:30:42;5.40;;;1.15;;
21046;SDS011;10682;50.874;3.656;2022-08-06T08:33:14;2.83;;;1.35;;
21046;SDS011;10682;50.874;3.656;2022-08-06T08:35:49;3.17;;;0.80;;
21046;SDS011;10682;50.874;3.656;2022-08-06T08:38:30;4.85;;;1.10;;
21046;SDS011;10682;50.874;3.656;2022-08-06T08:41:00;4.95;;;1.00;;
21046;SDS011;10682;50.874;3.656;2022-08-06T08:44:10;6.05;;;1.10;;
21046;SDS011;10682;50.874;3.656;2022-08-06T08:46:39;3.58;;;1.08;;
21046;SDS011;10682;50.874;3.656;2022-08-06T08:52:21;8.43;;;1.30;;
21046;SDS011;10682;50.874;3.656;2022-08-06T08:54:59;3.85;;;0.90;;
21046;SDS011;10682;50.874;3.656;2022-08-06T08:57:49;2.22;;;0.70;;
21046;SDS011;10682;50.874;3.656;2022-08-06T09:00:39;9.98;;;1.60;;
21046;SDS011;10682;50.874;3.656;2022-08-06T09:03:06;8.88;;;1.23;;
21046;SDS011;10682;50.874;3.656;2022-08-06T09:05:37;5.63;;;1.30;;
21046;SDS011;10682;50.874;3.656;2022-08-06T09:08:13;3.40;;;1.08;;
21046;SDS011;10682;50.874;3.656;2022-08-06T09:11:01;4.90;;;0.90;;
21046;SDS011;10682;50.874;3.656;2022-08-06T09:13:37;4.30;;;1.00;;
21046;SDS011;10682;50.874;3.656;2022-08-06T09:16:17;2.83;;;0.93;;
21046;SDS011;10682;50.874;3.656;2022-08-06T09:18:58;4.03;;;0.90;;
21046;SDS011;10682;50.874;3.656;2022-08-06T09:21:26;5.28;;;1.17;;
21046;SDS011;10682;50.874;3.656;2022-08-06T09:23:56;5.00;;;0.90;;
21046;SDS011;10682;50.874;3.656;2022-08-06T09:26:29;1.95;;;1.00;;
21046;SDS011;10682;50.874;3.656;2022-08-06T09:29:20;4.93;;;1.02;;
21046;SDS011;10682;50.874;3.656;2022-08-06T09:32:01;4.80;;;1.10;;
21046;SDS011;10682;50.874;3.656;2022-08-06T09:34:40;5.03;;;1.20;;
21046;SDS011;10682;50.874;3.656;2022-08-06T09:37:25;4.95;;;1.23;;
21046;SDS011;10682;50.874;3.656;2022-08-06T09:40:14;3.15;;;1.17;;
21046;SDS011;10682;50.874;3.656;2022-08-06T09:42:48;5.35;;;1.52;;
21046;SDS011;10682;50.874;3.656;2022-08-06T09:45:17;5.47;;;1.45;;
21046;SDS011;10682;50.874;3.656;2022-08-06T09:48:07;2.55;;;1.17;;
21046;SDS011;10682;50.874;3.656;2022-08-06T09:50:47;6.95;;;1.50;;
21046;SDS011;10682;50.874;3.656;2022-08-06T09:53:16;5.18;;;1.75;;
21046;SDS011;10682;50.874;3.656;2022-08-06T09:55:47;4.30;;;1.55;;
21046;SDS011;10682;50.874;3.656;2022-08-06T09:58:33;5.18;;;1.55;;
21046;SDS011;10682;50.874;3.656;2022-08-06T10:03:48;4.32;;;1.60;;
21046;SDS011;10682;50.874;3.656;2022-08-06T10:06:33;3.47;;;1.50;;
21046;SDS011;10682;50.874;3.656;2022-08-06T10:09:06;4.45;;;1.70;;
21046;SDS011;10682;50.874;3.656;2022-08-06T10:11:46;3.40;;;1.77;;
21046;SDS011;10682;50.874;3.656;2022-08-06T10:14:22;3.47;;;1.60;;
21046;SDS011;10682;50.874;3.656;2022-08-06T10:19:45;4.72;;;1.58;;
21046;SDS011;10682;50.874;3.656;2022-08-06T10:22:34;4.47;;;1.35;;
21046;SDS011;10682;50.874;3.656;2022-08-06T10:25:03;2.72;;;1.20;;
21046;SDS011;10682;50.874;3.656;2022-08-06T10:27:38;4.03;;;1.40;;
21046;SDS011;10682;50.874;3.656;2022-08-06T10:30:08;3.33;;;1.50;;
21046;SDS011;10682;50.874;3.656;2022-08-06T10:32:43;3.40;;;1.20;;
21046;SDS011;10682;50.874;3.656;2022-08-06T10:35:25;3.22;;;1.73;;
21046;SDS011;10682;50.874;3.656;2022-08-06T10:37:58;3.83;;;1.42;;
21046;SDS011;10682;50.874;3.656;2022-08-06T10:40:40;3.45;;;1.45;;
21046;SDS011;10682;50.874;3.656;2022-08-06T10:43:26;3.13;;;1.48;;
21046;SDS011;10682;50.874;3.656;2022-08-06T10:46:01;5.57;;;1.35;;
21046;SDS011;10682;50.874;3.656;2022-08-06T10:48:40;3.55;;;1.70;;
21046;SDS011;10682;50.874;3.656;2022-08-06T10:51:29;2.65;;;1.40;;
21046;SDS011;10682;50.874;3.656;2022-08-06T10:54:16;2.92;;;1.30;;
21046;SDS011;10682;50.874;3.656;2022-08-06T10:56:49;2.67;;;1.20;;
21046;SDS011;10682;50.874;3.656;2022-08-06T10:59:17;4.20;;;1.45;;
21046;SDS011;10682;50.874;3.656;2022-08-06T11:05:23;4.63;;;1.70;;
21046;SDS011;10682;50.874;3.656;2022-08-06T11:14:35;4.50;;;1.70;;
21046;SDS011;10682;50.874;3.656;2022-08-06T11:17:04;1.83;;;1.33;;
21046;SDS011;10682;50.874;3.656;2022-08-06T11:19:37;4.70;;;1.20;;
21046;SDS011;10682;50.874;3.656;2022-08-06T11:22:41;4.28;;;1.13;;
21046;SDS011;10682;50.874;3.656;2022-08-06T11:25:19;3.40;;;1.38;;
21046;SDS011;10682;50.874;3.656;2022-08-06T11:28:56;3.83;;;1.10;;
21046;SDS011;10682;50.874;3.656;2022-08-06T11:31:07;2.95;;;1.10;;
21046;SDS011;10682;50.874;3.656;2022-08-06T11:34:03;3.60;;;1.00;;
21046;SDS011;10682;50.874;3.656;2022-08-06T11:36:42;2.30;;;1.30;;
21046;SDS011;10682;50.874;3.656;2022-08-06T11:40:05;3.92;;;1.27;;
21046;SDS011;10682;50.874;3.656;2022-08-06T11:42:42;4.68;;;1.10;;
21046;SDS011;10682;50.874;3.656;2022-08-06T11:45:15;2.38;;;1.30;;
21046;SDS011;10682;50.874;3.656;2022-08-06T11:48:06;6.10;;;1.35;;
21046;SDS011;10682;50.874;3.656;2022-08-06T11:50:52;3.90;;;1.10;;
21046;SDS011;10682;50.874;3.656;2022-08-06T11:53:36;3.22;;;1.20;;
21046;SDS011;10682;50.874;3.656;2022-08-06T11:56:18;4.93;;;1.30;;
21046;SDS011;10682;50.874;3.656;2022-08-06T11:59:10;2.60;;;1.30;;
21046;SDS011;10682;50.874;3.656;2022-08-06T12:01:46;4.72;;;1.33;;
21046;SDS011;10682;50.874;3.656;2022-08-06T12:12:45;4.00;;;1.35;;
21046;SDS011;10682;50.874;3.656;2022-08-06T12:18:02;3.17;;;1.20;;
21046;SDS011;10682;50.874;3.656;2022-08-06T12:20:48;3.85;;;1.35;;
21046;SDS011;10682;50.874;3.656;2022-08-06T12:23:24;3.65;;;1.40;;
21046;SDS011;10682;50.874;3.656;2022-08-06T12:26:11;3.17;;;1.35;;
21046;SDS011;10682;50.874;3.656;2022-08-06T12:28:38;3.17;;;1.35;;
21046;SDS011;10682;50.874;3.656;2022-08-06T12:31:05;3.65;;;1.30;;
21046;SDS011;10682;50.874;3.656;2022-08-06T12:33:52;3.90;;;1.58;;
21046;SDS011;10682;50.874;3.656;2022-08-06T12:36:19;4.75;;;1.63;;
21046;SDS011;10682;50.874;3.656;2022-08-06T12:38:58;5.35;;;1.52;;
21046;SDS011;10682;50.874;3.656;2022-08-06T12:41:36;3.38;;;1.30;;
21046;SDS011;10682;50.874;3.656;2022-08-06T12:44:12;4.97;;;1.33;;
21046;SDS011;10682;50.874;3.656;2022-08-06T12:47:10;2.75;;;1.20;;
21046;SDS011;10682;50.874;3.656;2022-08-06T12:49:39;2.58;;;1.25;;
21046;SDS011;10682;50.874;3.656;2022-08-06T12:54:44;6.30;;;1.60;;
21046;SDS011;10682;50.874;3.656;2022-08-06T12:57:21;5.45;;;1.30;;
21046;SDS011;10682;50.874;3.656;2022-08-06T13:00:10;3.40;;;1.55;;
21046;SDS011;10682;50.874;3.656;2022-08-06T13:02:40;3.55;;;1.33;;
21046;SDS011;10682;50.874;3.656;2022-08-06T13:05:11;3.95;;;1.40;;
21046;SDS011;10682;50.874;3.656;2022-08-06T13:07:40;3.50;;;1.27;;
21046;SDS011;10682;50.874;3.656;2022-08-06T13:10:12;2.78;;;1.35;;
21046;SDS011;10682;50.874;3.656;2022-08-06T13:13:01;4.03;;;1.30;;
21046;SDS011;10682;50.874;3.656;2022-08-06T13:16:12;3.80;;;1.30;;
21046;SDS011;10682;50.874;3.656;2022-08-06T13:21:45;4.57;;;1.40;;
21046;SDS011;10682;50.874;3.656;2022-08-06T13:24:28;2.47;;;0.98;;
21046;SDS011;10682;50.874;3.656;2022-08-06T13:27:00;5.45;;;1.20;;
21046;SDS011;10682;50.874;3.656;2022-08-06T13:29:33;4.03;;;1.10;;
21046;SDS011;10682;50.874;3.656;2022-08-06T13:32:23;2.47;;;1.08;;
21046;SDS011;10682;50.874;3.656;2022-08-06T13:35:03;3.10;;;1.05;;
21046;SDS011;10682;50.874;3.656;2022-08-06T13:37:44;2.85;;;1.35;;
21046;SDS011;10682;50.874;3.656;2022-08-06T13:40:45;1.83;;;1.10;;
21046;SDS011;10682;50.874;3.656;2022-08-06T13:43:43;2.55;;;1.00;;
21046;SDS011;10682;50.874;3.656;2022-08-06T13:46:24;4.53;;;0.93;;
21046;SDS011;10682;50.874;3.656;2022-08-06T13:48:56;2.97;;;1.10;;
21046;SDS011;10682;50.874;3.656;2022-08-06T13:51:28;1.60;;;0.85;;
21046;SDS011;10682;50.874;3.656;2022-08-06T13:54:01;4.38;;;1.20;;
21046;SDS011;10682;50.874;3.656;2022-08-06T13:56:44;2.50;;;1.10;;
21046;SDS011;10682;50.874;3.656;2022-08-06T13:59:18;2.92;;;1.10;;
21046;SDS011;10682;50.874;3.656;2022-08-06T14:02:05;4.85;;;1.20;;
21046;SDS011;10682;50.874;3.656;2022-08-06T14:04:34;2.17;;;0.80;;
21046;SDS011;10682;50.874;3.656;2022-08-06T14:07:01;3.03;;;1.08;;
21046;SDS011;10682;50.874;3.656;2022-08-06T14:09:28;5.07;;;1.30;;
21046;SDS011;10682;50.874;3.656;2022-08-06T14:12:16;1.77;;;0.82;;
21046;SDS011;10682;50.874;3.656;2022-08-06T14:14:45;2.15;;;1.00;;
21046;SDS011;10682;50.874;3.656;2022-08-06T14:17:15;3.47;;;1.00;;
21046;SDS011;10682;50.874;3.656;2022-08-06T14:19:43;2.55;;;1.00;;
21046;SDS011;10682;50.874;3.656;2022-08-06T14:22:30;3.97;;;1.10;;
21046;SDS011;10682;50.874;3.656;2022-08-06T14:25:03;1.30;;;0.82;;
21046;SDS011;10682;50.874;3.656;2022-08-06T14:27:32;5.13;;;0.98;;
21046;SDS011;10682;50.874;3.656;2022-08-06T14:30:08;3.40;;;1.13;;
21046;SDS011;10682;50.874;3.656;2022-08-06T14:32:56;1.90;;;1.05;;
21046;SDS011;10682;50.874;3.656;2022-08-06T14:35:36;2.13;;;0.90;;
21046;SDS011;10682;50.874;3.656;2022-08-06T14:38:15;1.63;;;1.10;;
21046;SDS011;10682;50.874;3.656;2022-08-06T14:40:42;4.40;;;1.23;;
21046;SDS011;10682;50.874;3.656;2022-08-06T14:43:29;3.17;;;1.30;;
21046;SDS011;10682;50.874;3.656;2022-08-06T14:46:20;1.55;;;1.00;;
21046;SDS011;10682;50.874;3.656;2022-08-06T14:48:51;5.15;;;1.27;;
21046;SDS011;10682;50.874;3.656;2022-08-06T14:51:23;6.60;;;1.35;;
21046;SDS011;10682;50.874;3.656;2022-08-06T14:54:10;2.00;;;1.25;;
21046;SDS011;10682;50.874;3.656;2022-08-06T14:56:40;3.88;;;1.35;;
21046;SDS011;10682;50.874;3.656;2022-08-06T14:59:17;5.55;;;1.15;;
21046;SDS011;10682;50.874;3.656;2022-08-06T15:01:47;3.95;;;1.30;;
21046;SDS011;10682;50.874;3.656;2022-08-06T15:04:16;3.70;;;1.40;;
21046;SDS011;10682;50.874;3.656;2022-08-06T15:06:50;3.20;;;1.30;;
21046;SDS011;10682;50.874;3.656;2022-08-06T15:09:22;6.13;;;1.20;;
21046;SDS011;10682;50.874;3.656;2022-08-06T15:12:09;4.82;;;1.10;;
21046;SDS011;10682;50.874;3.656;2022-08-06T15:14:37;3.10;;;1.15;;
21046;SDS011;10682;50.874;3.656;2022-08-06T15:17:16;3.03;;;1.35;;
21046;SDS011;10682;50.874;3.656;2022-08-06T15:20:03;4.30;;;1.00;;
21046;SDS011;10682;50.874;3.656;2022-08-06T15:22:34;2.15;;;0.98;;
21046;SDS011;10682;50.874;3.656;2022-08-06T15:25:04;4.20;;;0.90;;
21046;SDS011;10682;50.874;3.656;2022-08-06T15:27:34;3.20;;;0.73;;
21046;SDS011;10682;50.874;3.656;2022-08-06T15:30:02;3.40;;;0.90;;
21046;SDS011;10682;50.874;3.656;2022-08-06T15:32:30;3.05;;;1.10;;
21046;SDS011;10682;50.874;3.656;2022-08-06T15:34:57;2.92;;;0.90;;
21046;SDS011;10682;50.874;3.656;2022-08-06T15:37:24;2.58;;;0.98;;
21046;SDS011;10682;50.874;3.656;2022-08-06T15:40:11;1.35;;;1.10;;
21046;SDS011;10682;50.874;3.656;2022-08-06T15:42:39;5.25;;;1.05;;
21046;SDS011;10682;50.874;3.656;2022-08-06T15:45:08;2.67;;;1.10;;
21046;SDS011;10682;50.874;3.656;2022-08-06T15:47:55;3.85;;;1.13;;
21046;SDS011;10682;50.874;3.656;2022-08-06T15:50:31;2.28;;;1.08;;
21046;SDS011;10682;50.874;3.656;2022-08-06T15:53:10;2.13;;;0.70;;
21046;SDS011;10682;50.874;3.656;2022-08-06T15:55:48;1.50;;;0.90;;
21046;SDS011;10682;50.874;3.656;2022-08-06T15:58:18;1.88;;;0.77;;
21046;SDS011;10682;50.874;3.656;2022-08-06T16:00:54;2.25;;;0.90;;
21046;SDS011;10682;50.874;3.656;2022-08-06T16:03:33;1.10;;;0.80;;
21046;SDS011;10682;50.874;3.656;2022-08-06T16:06:20;1.95;;;0.80;;
21046;SDS011;10682;50.874;3.656;2022-08-06T16:08:53;2.60;;;0.90;;
21046;SDS011;10682;50.874;3.656;2022-08-06T16:11:25;1.55;;;0.75;;
21046;SDS011;10682;50.874;3.656;2022-08-06T16:14:12;2.00;;;0.70;;
21046;SDS011;10682;50.874;3.656;2022-08-06T16:16:45;2.50;;;0.70;;
21046;SDS011;10682;50.874;3.656;2022-08-06T16:19:12;3.78;;;0.88;;
21046;SDS011;10682;50.874;3.656;2022-08-06T16:21:46;8.38;;;0.90;;
21046;SDS011;10682;50.874;3.656;2022-08-06T16:24:14;5.15;;;1.05;;
21046;SDS011;10682;50.874;3.656;2022-08-06T16:26:42;3.45;;;1.13;;
21046;SDS011;10682;50.874;3.656;2022-08-06T16:29:18;2.85;;;0.98;;
21046;SDS011;10682;50.874;3.656;2022-08-06T16:31:46;3.50;;;1.20;;
21046;SDS011;10682;50.874;3.656;2022-08-06T16:34:20;4.22;;;1.20;;
21046;SDS011;10682;50.874;3.656;2022-08-06T16:36:55;2.25;;;1.30;;
21046;SDS011;10682;50.874;3.656;2022-08-06T16:39:23;3.75;;;1.38;;
21046;SDS011;10682;50.874;3.656;2022-08-06T16:42:06;2.05;;;1.20;;
21046;SDS011;10682;50.874;3.656;2022-08-06T16:44:54;4.63;;;1.30;;
21046;SDS011;10682;50.874;3.656;2022-08-06T16:47:27;2.58;;;0.90;;
21046;SDS011;10682;50.874;3.656;2022-08-06T16:50:15;3.33;;;0.93;;
21046;SDS011;10682;50.874;3.656;2022-08-06T16:53:05;6.07;;;1.05;;
21046;SDS011;10682;50.874;3.656;2022-08-06T16:55:54;1.80;;;0.95;;
21046;SDS011;10682;50.874;3.656;2022-08-06T16:58:22;2.05;;;0.88;;
21046;SDS011;10682;50.874;3.656;2022-08-06T17:01:09;1.85;;;0.68;;
21046;SDS011;10682;50.874;3.656;2022-08-06T17:03:56;2.17;;;0.80;;